createdAt,value
2022-12-25T00:01:51.000Z,10
2022-12-25T00:05:24.000Z,10.5
2022-12-25T00:08:56.000Z,10.6
2022-12-25T00:12:29.000Z,10.6
2022-12-25T00:16:02.000Z,8.9
2022-12-25T00:19:34.000Z,8.7
2022-12-25T00:23:07.000Z,10
2022-12-25T00:26:40.000Z,9.8
2022-12-25T00:30:12.000Z,13.3
2022-12-25T00:33:45.000Z,10.8
2022-12-25T00:37:17.000Z,11.4
2022-12-25T00:40:08.000Z,9.7
2022-12-25T00:43:41.000Z,13.7
2022-12-25T00:47:14.000Z,13.5
2022-12-25T00:50:47.000Z,14.7
2022-12-25T00:54:20.000Z,13.3
2022-12-25T00:57:52.000Z,13.7
2022-12-25T01:01:25.000Z,13
2022-12-25T01:04:58.000Z,12.8
2022-12-25T01:08:31.000Z,9.5
2022-12-25T01:12:04.000Z,10.2
2022-12-25T01:15:37.000Z,10.2
2022-12-25T01:18:28.000Z,10.2
2022-12-25T01:22:00.000Z,9.4
2022-12-25T01:25:33.000Z,9.5
2022-12-25T01:29:06.000Z,9.2
2022-12-25T01:32:39.000Z,9
2022-12-25T01:36:11.000Z,8.1
2022-12-25T01:39:44.000Z,9.3
2022-12-25T01:43:17.000Z,9
2022-12-25T01:46:49.000Z,8.6
2022-12-25T01:50:22.000Z,8.8
2022-12-25T01:53:55.000Z,8.4
2022-12-25T01:56:46.000Z,8.3
2022-12-25T02:00:19.000Z,8.1
2022-12-25T02:03:52.000Z,7.6
2022-12-25T02:07:25.000Z,7.3
2022-12-25T02:10:58.000Z,7.3
2022-12-25T02:14:30.000Z,7.9
2022-12-25T02:18:03.000Z,7.9
2022-12-25T02:21:36.000Z,6.8
2022-12-25T02:25:08.000Z,6.9
2022-12-25T02:28:41.000Z,7.1
2022-12-25T02:32:14.000Z,6.7
2022-12-25T02:35:05.000Z,7.2
2022-12-25T02:38:38.000Z,6.6
2022-12-25T02:42:10.000Z,6.7
2022-12-25T02:45:43.000Z,6.8
2022-12-25T02:49:16.000Z,7.2
2022-12-25T02:52:48.000Z,7.4
2022-12-25T02:56:21.000Z,7.7
2022-12-25T02:59:54.000Z,8.8
2022-12-25T03:03:27.000Z,7.8
2022-12-25T03:07:00.000Z,7.3
2022-12-25T03:10:32.000Z,7.8
2022-12-25T03:13:23.000Z,7.8
2022-12-25T03:16:56.000Z,7
2022-12-25T03:20:29.000Z,7.4
2022-12-25T03:24:01.000Z,7.4
2022-12-25T03:27:34.000Z,6.8
2022-12-25T03:31:07.000Z,6.5
2022-12-25T03:34:39.000Z,7.2
2022-12-25T03:38:12.000Z,7.3
2022-12-25T03:41:45.000Z,9.2
2022-12-25T03:45:17.000Z,8.7
2022-12-25T03:48:50.000Z,8.2
2022-12-25T03:51:41.000Z,8.2
2022-12-25T03:55:14.000Z,7.8
2022-12-25T03:58:47.000Z,8
2022-12-25T04:02:19.000Z,7.4
2022-12-25T04:05:52.000Z,8
2022-12-25T04:09:25.000Z,7.4
2022-12-25T04:12:57.000Z,8
2022-12-25T04:16:30.000Z,7.8
2022-12-25T04:20:02.000Z,8.8
2022-12-25T04:23:35.000Z,9.8
2022-12-25T04:27:08.000Z,7.7
2022-12-25T04:29:59.000Z,9.6
2022-12-25T04:33:32.000Z,7.9
2022-12-25T04:37:04.000Z,8.2
2022-12-25T04:40:37.000Z,8
2022-12-25T04:44:10.000Z,7.5
2022-12-25T04:47:42.000Z,7.7
2022-12-25T04:51:15.000Z,7.4
2022-12-25T04:54:48.000Z,6.7
2022-12-25T04:58:20.000Z,6.9
2022-12-25T05:01:53.000Z,6.8
2022-12-25T05:05:26.000Z,6.8
2022-12-25T05:08:17.000Z,8
2022-12-25T05:11:49.000Z,7.3
2022-12-25T05:15:22.000Z,8.4
2022-12-25T05:18:54.000Z,6.7
2022-12-25T05:22:32.000Z,9.1
2022-12-25T05:26:04.000Z,9.3
2022-12-25T05:29:37.000Z,8.5
2022-12-25T05:33:09.000Z,9.4
2022-12-25T05:36:42.000Z,9.4
2022-12-25T05:40:15.000Z,9.1
2022-12-25T05:43:48.000Z,9.3
2022-12-25T05:46:39.000Z,8.8
2022-12-25T05:50:11.000Z,9.4
2022-12-25T05:53:44.000Z,9.3
2022-12-25T05:57:17.000Z,8.8
2022-12-25T06:00:49.000Z,8.2
2022-12-25T06:04:22.000Z,8.2
2022-12-25T06:07:55.000Z,8.2
2022-12-25T06:11:27.000Z,7.8
2022-12-25T06:15:00.000Z,7.7
2022-12-25T06:18:37.000Z,7.7
2022-12-25T06:22:10.000Z,10.9
2022-12-25T06:25:01.000Z,9.5
2022-12-25T06:28:33.000Z,8.9
2022-12-25T06:32:06.000Z,8.4
2022-12-25T06:35:39.000Z,8.8
2022-12-25T06:39:11.000Z,9.8
2022-12-25T06:42:44.000Z,9.1
2022-12-25T06:46:17.000Z,8.9
2022-12-25T06:49:50.000Z,10.2
2022-12-25T06:53:22.000Z,9.7
2022-12-25T06:57:02.000Z,9.1
2022-12-25T07:00:35.000Z,9.4
2022-12-25T07:03:26.000Z,9.6
2022-12-25T07:06:59.000Z,9.6
2022-12-25T07:10:34.000Z,9.7
2022-12-25T07:14:07.000Z,9.7
2022-12-25T07:17:48.000Z,10.1
2022-12-25T07:21:20.000Z,9.4
2022-12-25T07:24:53.000Z,9.8
2022-12-25T07:28:26.000Z,9.4
2022-12-25T07:31:58.000Z,10.3
2022-12-25T07:35:31.000Z,10.1
2022-12-25T07:39:04.000Z,9.1
2022-12-25T07:41:55.000Z,10
2022-12-25T07:45:28.000Z,10
2022-12-25T07:49:01.000Z,10
2022-12-25T07:52:33.000Z,9.5
2022-12-25T07:56:09.000Z,9.2
2022-12-25T07:59:41.000Z,9.8
2022-12-25T08:03:14.000Z,9.3
2022-12-25T08:06:47.000Z,9.3
2022-12-25T08:10:20.000Z,9.5
2022-12-25T08:13:53.000Z,9.6
2022-12-25T08:17:25.000Z,12.1
2022-12-25T08:20:16.000Z,11.5
2022-12-25T08:23:49.000Z,11.9
2022-12-25T08:27:22.000Z,10.9
2022-12-25T08:30:54.000Z,12
2022-12-25T08:34:27.000Z,11.1
2022-12-25T08:38:00.000Z,10.5
2022-12-25T08:41:32.000Z,11.5
2022-12-25T08:45:05.000Z,12.1
2022-12-25T08:48:38.000Z,12.2
2022-12-25T08:52:10.000Z,11.9
2022-12-25T08:55:43.000Z,12.1
2022-12-25T08:58:34.000Z,13.4
2022-12-25T09:02:07.000Z,14.5
2022-12-25T09:05:40.000Z,12.7
2022-12-25T09:09:13.000Z,13.9
2022-12-25T09:12:46.000Z,13.2
2022-12-25T09:16:18.000Z,12.8
2022-12-25T09:19:51.000Z,11.3
2022-12-25T09:23:24.000Z,12.8
2022-12-25T09:26:56.000Z,13.8
2022-12-25T09:30:29.000Z,11.9
2022-12-25T09:34:02.000Z,11.5
2022-12-25T09:37:00.000Z,17.7
2022-12-25T09:40:33.000Z,13.6
2022-12-25T09:44:06.000Z,11.9
2022-12-25T09:47:38.000Z,12.3
2022-12-25T09:51:11.000Z,18.2
2022-12-25T09:54:44.000Z,25.5
2022-12-25T09:58:16.000Z,18.6
2022-12-25T10:01:49.000Z,21.3
2022-12-25T10:05:22.000Z,15.9
2022-12-25T10:08:55.000Z,12.5
2022-12-25T10:12:27.000Z,11
2022-12-25T10:15:19.000Z,10
2022-12-25T10:18:51.000Z,9
2022-12-25T10:22:24.000Z,10
2022-12-25T10:25:56.000Z,9.6
2022-12-25T10:29:29.000Z,8.6
2022-12-25T10:33:02.000Z,7.4
2022-12-25T10:36:41.000Z,6.8
2022-12-25T10:40:14.000Z,10.3
2022-12-25T10:43:47.000Z,7.1
2022-12-25T10:47:19.000Z,7
2022-12-25T10:50:53.000Z,8.1
2022-12-25T10:53:44.000Z,7
2022-12-25T10:57:22.000Z,7.1
2022-12-25T11:00:54.000Z,6.6
2022-12-25T11:04:28.000Z,7
2022-12-25T11:08:00.000Z,7
2022-12-25T11:11:33.000Z,6.9
2022-12-25T11:15:06.000Z,7.3
2022-12-25T11:18:39.000Z,6.8
2022-12-25T11:22:11.000Z,6.9
2022-12-25T11:25:44.000Z,6
2022-12-25T11:29:17.000Z,6.5
2022-12-25T11:32:08.000Z,6
2022-12-25T11:35:41.000Z,5.8
2022-12-25T11:39:13.000Z,6.1
2022-12-25T11:42:46.000Z,5.6
2022-12-25T11:46:18.000Z,6.3
2022-12-25T11:49:51.000Z,5.8
2022-12-25T11:53:26.000Z,5.5
2022-12-25T11:56:59.000Z,5.5
2022-12-25T12:00:32.000Z,5.2
2022-12-25T12:04:05.000Z,6.8
2022-12-25T12:07:37.000Z,5.5
2022-12-25T12:10:28.000Z,4.9
2022-12-25T12:14:01.000Z,5.3
2022-12-25T12:17:34.000Z,5.5
2022-12-25T12:21:06.000Z,5.2
2022-12-25T12:24:39.000Z,5.1
2022-12-25T12:28:12.000Z,5.3
2022-12-25T12:31:44.000Z,5.6
2022-12-25T12:35:17.000Z,5
2022-12-25T12:38:50.000Z,5.3
2022-12-25T12:42:23.000Z,7.4
2022-12-25T12:45:55.000Z,6.5
2022-12-25T12:48:46.000Z,6.3
2022-12-25T12:52:19.000Z,5
2022-12-25T12:55:52.000Z,5.1
2022-12-25T12:59:24.000Z,12
2022-12-25T13:02:57.000Z,12.4
2022-12-25T13:06:30.000Z,22.9
2022-12-25T13:10:02.000Z,31.9
2022-12-25T13:13:35.000Z,27.2
2022-12-25T13:17:08.000Z,18.1
2022-12-25T13:20:40.000Z,27.9
2022-12-25T13:24:13.000Z,20.4
2022-12-25T13:27:04.000Z,18.5
2022-12-25T13:30:38.000Z,23.7
2022-12-25T13:34:11.000Z,30.9
2022-12-25T13:37:43.000Z,17.6
2022-12-25T13:41:16.000Z,24.2
2022-12-25T13:44:49.000Z,9.7
2022-12-25T13:48:21.000Z,19.6
2022-12-25T13:51:54.000Z,11.5
2022-12-25T13:55:27.000Z,12.4
2022-12-25T13:58:59.000Z,9
2022-12-25T14:02:32.000Z,9.4
2022-12-25T14:05:23.000Z,6.5
2022-12-25T14:09:04.000Z,7.6
2022-12-25T14:12:37.000Z,7.8
2022-12-25T14:16:10.000Z,6.4
2022-12-25T14:19:42.000Z,6.6
2022-12-25T14:23:15.000Z,7
2022-12-25T14:26:48.000Z,7.5
2022-12-25T14:30:20.000Z,6.8
2022-12-25T14:33:53.000Z,7.1
2022-12-25T14:37:26.000Z,7
2022-12-25T14:40:59.000Z,7.2
2022-12-25T14:43:50.000Z,7.3
2022-12-25T14:47:23.000Z,7.2
2022-12-25T14:50:55.000Z,7.2
2022-12-25T14:54:28.000Z,7.1
2022-12-25T14:58:01.000Z,6.6
2022-12-25T15:01:33.000Z,7.2
2022-12-25T15:05:07.000Z,7.4
2022-12-25T15:08:40.000Z,7.2
2022-12-25T15:12:56.000Z,7.6
2022-12-25T15:16:29.000Z,8.2
2022-12-25T15:20:02.000Z,9.8
2022-12-25T15:22:53.000Z,9.7
2022-12-25T15:26:45.000Z,13.5
2022-12-25T15:30:17.000Z,12.4
2022-12-25T15:33:50.000Z,14.6
2022-12-25T15:37:22.000Z,12.3
2022-12-25T15:40:55.000Z,11.3
2022-12-25T15:44:29.000Z,11
2022-12-25T15:48:02.000Z,10.6
2022-12-25T15:51:34.000Z,11.1
2022-12-25T15:55:07.000Z,11.6
2022-12-25T15:58:40.000Z,12.1
2022-12-25T16:01:31.000Z,11.4
2022-12-25T16:05:04.000Z,13.3
2022-12-25T16:08:37.000Z,11.5
2022-12-25T16:12:10.000Z,11
2022-12-25T16:15:42.000Z,12.2
2022-12-25T16:19:15.000Z,11.2
2022-12-25T16:22:48.000Z,12
2022-12-25T16:26:21.000Z,10.6
2022-12-25T16:29:53.000Z,11.7
2022-12-25T16:33:26.000Z,11.8
2022-12-25T16:36:59.000Z,11.4
2022-12-25T16:39:50.000Z,10.6
2022-12-25T16:43:22.000Z,11.5
2022-12-25T16:46:55.000Z,11.8
2022-12-25T16:50:28.000Z,11.1
2022-12-25T16:54:00.000Z,10.9
2022-12-25T16:57:33.000Z,11
2022-12-25T17:01:06.000Z,10.6
2022-12-25T17:04:39.000Z,10.7
2022-12-25T17:08:12.000Z,10.6
2022-12-25T17:11:44.000Z,10
2022-12-25T17:15:17.000Z,11.1
2022-12-25T17:18:08.000Z,10.4
2022-12-25T17:21:40.000Z,11.6
2022-12-25T17:25:13.000Z,11.8
2022-12-25T17:28:46.000Z,11.4
2022-12-25T17:32:18.000Z,12.2
2022-12-25T17:35:51.000Z,11.7
2022-12-25T17:39:29.000Z,11.2
2022-12-25T17:43:01.000Z,10.7
2022-12-25T17:46:34.000Z,11.5
2022-12-25T17:50:07.000Z,11.6
2022-12-25T17:53:40.000Z,11.3
2022-12-25T17:56:31.000Z,11.4
2022-12-25T18:00:04.000Z,11.9
2022-12-25T18:03:37.000Z,11.3
2022-12-25T18:07:10.000Z,10.8
2022-12-25T18:10:42.000Z,9.8
2022-12-25T18:14:15.000Z,10.4
2022-12-25T18:17:47.000Z,9.6
2022-12-25T18:21:20.000Z,9.6
2022-12-25T18:24:53.000Z,10.9
2022-12-25T18:28:25.000Z,14.9
2022-12-25T18:31:58.000Z,12.9
2022-12-25T18:34:49.000Z,12.4
2022-12-25T18:38:22.000Z,12.9
2022-12-25T18:41:54.000Z,12.9
2022-12-25T18:45:53.000Z,11.5
2022-12-25T18:49:26.000Z,12.2
2022-12-25T18:52:59.000Z,11.4
2022-12-25T18:56:32.000Z,10.6
2022-12-25T19:00:04.000Z,12.7
2022-12-25T19:03:37.000Z,11.3
2022-12-25T19:07:10.000Z,11.4
2022-12-25T19:10:42.000Z,9.9
2022-12-25T19:13:33.000Z,9.8
2022-12-25T19:17:06.000Z,10.1
2022-12-25T19:20:39.000Z,10.6
2022-12-25T19:24:11.000Z,15.5
2022-12-25T19:27:44.000Z,11.5
2022-12-25T19:31:17.000Z,8.8
2022-12-25T19:34:49.000Z,8
2022-12-25T19:38:22.000Z,8.2
2022-12-25T19:41:54.000Z,7.8
2022-12-25T19:45:27.000Z,7.7
2022-12-25T19:49:00.000Z,7.3
2022-12-25T19:51:51.000Z,7.5
2022-12-25T19:55:23.000Z,7.1
2022-12-25T19:58:56.000Z,6.9
2022-12-25T20:02:29.000Z,6.3
2022-12-25T20:06:02.000Z,6.4
2022-12-25T20:09:35.000Z,6.7
2022-12-25T20:13:08.000Z,6.6
2022-12-25T20:16:40.000Z,7.4
2022-12-25T20:20:13.000Z,6.8
2022-12-25T20:23:46.000Z,6.8
2022-12-25T20:27:19.000Z,6.5
2022-12-25T20:30:10.000Z,6.8
2022-12-25T20:33:42.000Z,5.9
2022-12-25T20:37:15.000Z,7.2
2022-12-25T20:40:48.000Z,6.6
2022-12-25T20:44:52.000Z,7.2
2022-12-25T20:48:25.000Z,6.9
2022-12-25T20:51:58.000Z,10.4
2022-12-25T20:55:31.000Z,13.7
2022-12-25T20:59:03.000Z,17.8
2022-12-25T21:02:36.000Z,11.4
2022-12-25T21:06:15.000Z,8.9
2022-12-25T21:09:06.000Z,8.2
2022-12-25T21:12:38.000Z,8.3
2022-12-25T21:16:11.000Z,8.5
2022-12-25T21:19:44.000Z,8.6
2022-12-25T21:23:17.000Z,8.5
2022-12-25T21:26:49.000Z,8.8
2022-12-25T21:30:22.000Z,7.8
2022-12-25T21:33:55.000Z,8.7
2022-12-25T21:37:27.000Z,8.8
2022-12-25T21:41:00.000Z,8.3
2022-12-25T21:44:33.000Z,9.7
2022-12-25T21:47:24.000Z,8.6
2022-12-25T21:51:27.000Z,8.8
2022-12-25T21:55:00.000Z,9
2022-12-25T21:58:41.000Z,9.4
2022-12-25T22:02:14.000Z,8.7
2022-12-25T22:05:47.000Z,8.5
2022-12-25T22:09:20.000Z,9.6
2022-12-25T22:12:53.000Z,9.7
2022-12-25T22:16:52.000Z,9.9
2022-12-25T22:20:24.000Z,9.9
2022-12-25T22:23:57.000Z,9.4
2022-12-25T22:26:48.000Z,10
2022-12-25T22:30:21.000Z,10.2
2022-12-25T22:33:54.000Z,10.4
2022-12-25T22:37:27.000Z,10.2
2022-12-25T22:40:59.000Z,10.7
2022-12-25T22:44:32.000Z,10.2
2022-12-25T22:48:05.000Z,10.3
2022-12-25T22:51:38.000Z,10.7
2022-12-25T22:55:10.000Z,11.4
2022-12-25T22:58:43.000Z,10.3
2022-12-25T23:02:15.000Z,10.5
2022-12-25T23:05:07.000Z,10.5
2022-12-25T23:08:40.000Z,11.2
2022-12-25T23:12:12.000Z,10.1
2022-12-25T23:15:45.000Z,10.5
2022-12-25T23:19:18.000Z,10.8
2022-12-25T23:22:50.000Z,10.2
2022-12-25T23:26:23.000Z,10.5
2022-12-25T23:29:55.000Z,10.2
2022-12-25T23:33:28.000Z,10.1
2022-12-25T23:37:01.000Z,9.5
2022-12-25T23:40:34.000Z,9.4
2022-12-25T23:43:25.000Z,9.6
2022-12-25T23:46:58.000Z,8.8
2022-12-25T23:50:30.000Z,9
2022-12-25T23:54:03.000Z,8.7
2022-12-25T23:57:36.000Z,9.2
